createdAt,value
2018-07-09T18:10:49.544Z,39.40
2018-07-09T18:15:05.815Z,38.20
2018-07-09T18:17:35.372Z,38.10
2018-07-09T18:20:04.993Z,38.40
2018-07-09T18:22:34.544Z,39.00
2018-07-09T18:25:04.244Z,40.10
2018-07-09T18:27:33.984Z,40.60
2018-07-09T18:30:03.720Z,41.30
2018-07-09T18:32:33.281Z,42.00
2018-07-09T18:35:02.851Z,42.90
2018-07-09T18:37:32.503Z,44.90
2018-07-09T18:40:02.036Z,46.30
2018-07-09T18:42:31.564Z,46.20
2018-07-09T18:45:01.124Z,46.00
2018-07-09T18:47:30.640Z,45.20
2018-07-09T18:50:00.228Z,47.30
2018-07-09T18:52:30.259Z,49.50
2018-07-09T18:54:59.831Z,49.30
2018-07-09T18:57:29.368Z,50.10
2018-07-09T18:59:58.928Z,50.50
2018-07-09T19:02:28.507Z,50.20
2018-07-09T19:04:58.111Z,49.30
2018-07-09T19:07:27.560Z,50.00
2018-07-09T19:09:57.307Z,50.30
2018-07-09T19:12:41.295Z,51.60
2018-07-09T19:15:10.888Z,53.50
2018-07-09T19:18:00.395Z,54.70
2018-07-09T19:20:40.678Z,53.80
2018-07-09T19:23:09.261Z,54.40
2018-07-09T19:25:37.903Z,54.20
2018-07-09T19:28:07.132Z,54.30
2018-07-09T19:30:35.012Z,53.40
2018-07-09T19:33:02.891Z,53.40
2018-07-09T19:35:30.795Z,56.20
2018-07-09T19:37:58.946Z,56.10
2018-07-09T19:40:26.494Z,55.80
2018-07-09T19:42:54.348Z,58.20
2018-07-09T19:45:22.225Z,58.80
2018-07-09T19:47:50.086Z,59.10
2018-07-09T19:50:17.923Z,58.40
2018-07-09T19:52:45.744Z,57.20
2018-07-09T19:55:13.596Z,56.10
2018-07-09T19:57:41.468Z,55.50
2018-07-09T20:00:09.343Z,55.20
2018-07-09T20:02:37.187Z,55.30
2018-07-09T20:05:05.094Z,54.30
2018-07-09T20:07:32.943Z,54.70
2018-07-09T20:10:05.824Z,54.50
2018-07-09T20:12:38.680Z,54.70
2018-07-09T20:15:11.637Z,54.30
2018-07-09T20:17:43.341Z,54.00
2018-07-09T20:20:11.140Z,54.10
2018-07-09T20:22:38.971Z,54.10
2018-07-09T20:25:06.811Z,53.80
2018-07-09T20:27:34.608Z,54.00
2018-07-09T20:30:02.491Z,54.30
2018-07-09T20:32:30.336Z,54.40
2018-07-09T20:34:58.156Z,54.40
2018-07-09T20:37:26.060Z,55.00
2018-07-09T20:39:53.946Z,54.80
2018-07-09T20:42:21.843Z,55.10
2018-07-09T20:44:49.683Z,55.20
2018-07-09T20:47:17.620Z,55.30
2018-07-09T20:49:45.465Z,55.30
2018-07-09T20:52:13.314Z,55.20
2018-07-09T20:54:41.188Z,55.40
2018-07-09T20:57:09.080Z,55.00
2018-07-09T20:59:36.927Z,55.10
2018-07-09T21:02:04.844Z,54.70
2018-07-09T21:04:33.276Z,54.80
2018-07-09T21:07:02.359Z,54.50
2018-07-09T21:09:30.925Z,55.00
2018-07-09T21:11:59.397Z,54.00
2018-07-09T21:14:27.200Z,54.00
2018-07-09T21:16:55.040Z,54.30
2018-07-09T21:19:22.892Z,53.90
2018-07-09T21:21:50.735Z,53.90
2018-07-09T21:24:18.581Z,53.60
2018-07-09T21:26:46.435Z,53.60
2018-07-09T21:29:14.284Z,52.80
2018-07-09T21:31:42.132Z,52.50
2018-07-09T21:34:09.996Z,51.70
2018-07-09T21:36:37.887Z,51.40
2018-07-09T21:39:05.943Z,51.00
2018-07-09T21:41:33.788Z,51.00
2018-07-09T21:44:01.611Z,51.00
2018-07-09T21:46:29.467Z,51.00
2018-07-09T21:48:57.312Z,51.40
2018-07-09T21:51:25.159Z,50.70
2018-07-09T21:53:53.004Z,51.20
2018-07-09T21:56:20.880Z,50.80
2018-07-09T21:58:48.706Z,50.60
2018-07-09T22:01:16.545Z,50.90
2018-07-09T22:03:44.375Z,50.80
2018-07-09T22:06:12.188Z,51.00
2018-07-09T22:08:39.999Z,51.20
2018-07-09T22:11:07.796Z,51.10
2018-07-09T22:13:35.616Z,50.90
2018-07-09T22:16:03.422Z,51.30
2018-07-09T22:18:31.240Z,51.30
2018-07-09T22:20:59.104Z,51.80
2018-07-09T22:23:26.943Z,52.20
2018-07-09T22:25:54.787Z,52.60
2018-07-09T22:28:22.651Z,52.80
2018-07-09T22:30:52.297Z,52.80
2018-07-09T22:33:21.867Z,52.70
2018-07-09T22:35:51.431Z,52.70
2018-07-09T22:38:20.992Z,52.70
2018-07-09T22:40:50.572Z,53.10
2018-07-09T22:43:30.688Z,53.50
2018-07-09T22:46:00.252Z,54.00
2018-07-09T22:48:29.836Z,54.40
2018-07-09T22:50:59.702Z,54.60
2018-07-09T22:53:29.188Z,54.80
2018-07-09T22:56:12.455Z,55.00
2018-07-09T22:58:42.816Z,55.30
2018-07-09T23:01:12.343Z,55.70
2018-07-09T23:03:41.831Z,56.00
2018-07-09T23:06:11.342Z,56.50
2018-07-09T23:08:40.786Z,56.90
2018-07-09T23:11:20.900Z,57.10
2018-07-09T23:15:00.530Z,57.30
2018-07-09T23:17:40.653Z,58.10
2018-07-09T23:20:21.129Z,58.00
2018-07-09T23:22:48.952Z,58.20
2018-07-09T23:25:16.731Z,58.30
2018-07-09T23:27:44.506Z,58.40
2018-07-09T23:30:12.305Z,58.70
2018-07-09T23:32:40.085Z,58.90
2018-07-09T23:35:07.905Z,59.10
2018-07-09T23:37:35.677Z,59.40
2018-07-09T23:40:03.458Z,59.70
2018-07-09T23:42:31.606Z,60.10
2018-07-09T23:44:59.433Z,60.90
2018-07-09T23:47:27.274Z,61.50
2018-07-09T23:53:25.397Z,62.90
2018-07-09T23:58:05.614Z,63.30
